Time;durP1;ratioP1;P1;durP2;ratioP2;P2;SDS_P1;SDS_P2;PMS_P1;PMS_P2;Temp;Humidity;BMP_temperature;BMP_pressure;BME280_temperature;BME280_humidity;BME280_pressure;Samples;Min_cycle;Max_cycle;Signal;HPM_P1;HPM_P2
2024/03/29 00:00:04;;;;;;;2.13;1.93;;;;;;;;;;6069922;23;20611;-82
2024/03/29 00:02:38;;;;;;;1.30;1.20;;;;;;;;;;6093819;23;20156;-82
2024/03/29 00:05:07;;;;;;;1.00;0.90;;;;;;;;;;6070461;23;20168;-80
2024/03/29 00:07:33;;;;;;;1.00;0.43;;;;;;;;;;6046006;23;20199;-84
2024/03/29 00:09:59;;;;;;;1.20;0.53;;;;;;;;;;6093639;23;20179;-82
2024/03/29 00:12:26;;;;;;;0.70;0.70;;;;;;;;;;6069942;23;20165;-82
2024/03/29 00:14:52;;;;;;;1.00;0.90;;;;;;;;;;6045959;23;20691;-81
2024/03/29 00:17:18;;;;;;;0.70;0.70;;;;;;;;;;6069848;23;20200;-81
2024/03/29 00:19:44;;;;;;;18.03;16.53;;;;;;;;;;6094171;23;20168;-81
2024/03/29 00:22:10;;;;;;;7.03;6.40;;;;;;;;;;6069489;23;20238;-83
2024/03/29 00:24:36;;;;;;;1.10;1.00;;;;;;;;;;6069844;23;20211;-83
2024/03/29 00:27:02;;;;;;;1.90;1.80;;;;;;;;;;6093639;23;20666;-81
2024/03/29 00:29:29;;;;;;;3.03;2.83;;;;;;;;;;6093845;23;20190;-81
2024/03/29 00:31:55;;;;;;;3.97;3.67;;;;;;;;;;6093063;23;20616;-80
2024/03/29 00:34:21;;;;;;;3.37;3.07;;;;;;;;;;6093500;23;20223;-81
2024/03/29 00:36:48;;;;;;;3.53;3.30;;;;;;;;;;6069159;23;20212;-80
2024/03/29 00:39:17;;;;;;;4.90;4.60;;;;;;;;;;6070644;23;20188;-82
2024/03/29 00:41:43;;;;;;;9.87;9.07;;;;;;;;;;6093503;23;20472;-81
2024/03/29 00:44:12;;;;;;;2.70;2.50;;;;;;;;;;6093678;23;20186;-82
2024/03/29 00:46:38;;;;;;;1.33;1.23;;;;;;;;;;6093182;23;20165;-81
2024/03/29 00:49:13;;;;;;;1.00;0.90;;;;;;;;;;6117635;23;20188;-81
2024/03/29 00:51:43;;;;;;;1.60;1.10;;;;;;;;;;6071220;23;20179;-82
2024/03/29 00:54:09;;;;;;;1.10;0.87;;;;;;;;;;6095425;23;20170;-83
2024/03/29 00:56:35;;;;;;;1.10;1.00;;;;;;;;;;6071042;23;20168;-81
2024/03/29 00:59:04;;;;;;;1.33;1.23;;;;;;;;;;6071288;23;20199;-81
2024/03/29 01:01:30;;;;;;;1.57;1.23;;;;;;;;;;6071535;23;20168;-82
2024/03/29 01:04:04;;;;;;;1.40;1.30;;;;;;;;;;6071842;23;20175;-82
2024/03/29 01:06:30;;;;;;;1.87;1.20;;;;;;;;;;6071358;23;20168;-81
2024/03/29 01:08:56;;;;;;;1.50;1.40;;;;;;;;;;6047760;23;20207;-81
2024/03/29 01:11:23;;;;;;;1.57;1.30;;;;;;;;;;6071407;23;20173;-81
2024/03/29 01:13:50;;;;;;;1.20;1.10;;;;;;;;;;6095363;23;20175;-81
2024/03/29 01:16:16;;;;;;;1.60;1.20;;;;;;;;;;6119333;23;20173;-82
2024/03/29 01:18:43;;;;;;;1.73;1.30;;;;;;;;;;6071293;23;20195;-81
2024/03/29 01:21:09;;;;;;;1.47;1.30;;;;;;;;;;6095070;23;20208;-82
2024/03/29 01:23:36;;;;;;;1.57;1.27;;;;;;;;;;6095287;23;20200;-81
2024/03/29 01:26:02;;;;;;;1.13;1.03;;;;;;;;;;6071576;23;20168;-80
2024/03/29 01:28:31;;;;;;;1.33;1.23;;;;;;;;;;6095308;23;20173;-81
2024/03/29 01:30:58;;;;;;;2.00;1.30;;;;;;;;;;6095413;23;20255;-81
2024/03/29 01:33:25;;;;;;;1.77;1.13;;;;;;;;;;6094958;23;20179;-80
2024/03/29 01:35:51;;;;;;;2.13;1.23;;;;;;;;;;6070944;23;20201;-82
2024/03/29 01:38:17;;;;;;;0.90;0.90;;;;;;;;;;6070814;23;20651;-82
2024/03/29 01:40:46;;;;;;;1.97;1.00;;;;;;;;;;6071675;23;20168;-81
2024/03/29 01:43:12;;;;;;;1.13;1.00;;;;;;;;;;6070493;23;20279;-82
2024/03/29 01:45:39;;;;;;;0.70;0.70;;;;;;;;;;6070657;23;20696;-83
2024/03/29 01:48:05;;;;;;;1.10;1.00;;;;;;;;;;6070837;23;20164;-81
2024/03/29 01:50:35;;;;;;;1.30;0.60;;;;;;;;;;6094660;23;20244;-81
2024/03/29 01:53:02;;;;;;;0.80;0.70;;;;;;;;;;6094515;23;20624;-84
2024/03/29 01:55:27;;;;;;;0.80;0.80;;;;;;;;;;6071077;23;20168;-82
2024/03/29 01:57:56;;;;;;;0.70;0.70;;;;;;;;;;6094960;23;20244;-82
2024/03/29 02:00:22;;;;;;;0.80;0.70;;;;;;;;;;6070656;23;20263;-81
2024/03/29 02:02:48;;;;;;;0.60;0.50;;;;;;;;;;6094509;23;20695;-81
2024/03/29 02:05:18;;;;;;;0.77;0.60;;;;;;;;;;6095354;23;20173;-82
2024/03/29 02:07:48;;;;;;;1.40;0.70;;;;;;;;;;6094917;23;20681;-82
2024/03/29 02:10:17;;;;;;;0.63;0.60;;;;;;;;;;6070594;23;20176;-80
2024/03/29 02:12:44;;;;;;;0.93;0.77;;;;;;;;;;6094608;23;20173;-82
2024/03/29 02:15:14;;;;;;;0.90;0.60;;;;;;;;;;6070625;23;20208;-81
2024/03/29 02:17:41;;;;;;;0.60;0.50;;;;;;;;;;6094360;23;20183;-82
2024/03/29 02:20:07;;;;;;;0.83;0.70;;;;;;;;;;6046582;23;20172;-82
2024/03/29 02:22:40;;;;;;;0.80;0.70;;;;;;;;;;6094558;23;20248;-81
2024/03/29 02:25:06;;;;;;;0.80;0.80;;;;;;;;;;6046646;23;20169;-82
2024/03/29 02:27:36;;;;;;;0.77;0.73;;;;;;;;;;6046961;23;20251;-81
2024/03/29 02:30:05;;;;;;;2.17;0.80;;;;;;;;;;6094773;23;20163;-82
2024/03/29 02:32:34;;;;;;;1.30;0.73;;;;;;;;;;6046906;23;20168;-81
2024/03/29 02:35:00;;;;;;;1.53;1.10;;;;;;;;;;6119222;23;20242;-81
2024/03/29 02:37:26;;;;;;;0.70;0.70;;;;;;;;;;6046651;23;20192;-83
2024/03/29 02:39:52;;;;;;;0.70;0.67;;;;;;;;;;6094514;23;20636;-81
2024/03/29 02:42:18;;;;;;;1.03;0.80;;;;;;;;;;6069946;23;20185;-82
2024/03/29 02:44:46;;;;;;;1.30;0.80;;;;;;;;;;6119135;23;20263;-82
2024/03/29 02:47:12;;;;;;;0.80;0.70;;;;;;;;;;6070452;23;20662;-83
2024/03/29 02:49:43;;;;;;;0.70;0.70;;;;;;;;;;6094423;23;20168;-80
2024/03/29 02:52:09;;;;;;;1.27;0.70;;;;;;;;;;6070407;23;20152;-81
2024/03/29 02:54:35;;;;;;;0.80;0.70;;;;;;;;;;6094519;23;20633;-81
2024/03/29 02:57:01;;;;;;;0.93;0.50;;;;;;;;;;6069730;23;20192;-83
2024/03/29 02:59:30;;;;;;;0.70;0.60;;;;;;;;;;6070097;23;20176;-81
2024/03/29 03:02:00;;;;;;;0.80;0.60;;;;;;;;;;6094082;23;20174;-81
2024/03/29 03:04:27;;;;;;;1.00;0.50;;;;;;;;;;6070223;23;20180;-82
2024/03/29 03:06:53;;;;;;;0.60;0.60;;;;;;;;;;6070294;23;20168;-82
2024/03/29 03:12:04;;;;;;;1.17;0.60;;;;;;;;;;6094261;23;20163;-81
2024/03/29 03:14:33;;;;;;;1.13;0.40;;;;;;;;;;6070346;23;20168;-83
2024/03/29 03:16:59;;;;;;;1.10;0.67;;;;;;;;;;6093781;23;20188;-81
2024/03/29 03:19:25;;;;;;;3.00;0.80;;;;;;;;;;6046073;23;20678;-82
2024/03/29 03:21:52;;;;;;;0.67;0.57;;;;;;;;;;6094185;23;20192;-83
2024/03/29 03:24:18;;;;;;;2.20;0.70;;;;;;;;;;6046421;23;20169;-81
2024/03/29 03:26:48;;;;;;;0.90;0.80;;;;;;;;;;6094187;23;20650;-81
2024/03/29 03:29:15;;;;;;;1.03;0.77;;;;;;;;;;6093952;23;20239;-83
2024/03/29 03:31:40;;;;;;;1.07;0.60;;;;;;;;;;6070478;23;20169;-82
2024/03/29 03:34:07;;;;;;;1.13;0.77;;;;;;;;;;6097824;23;20234;-82
2024/03/29 03:36:34;;;;;;;0.87;0.70;;;;;;;;;;6074855;23;20160;-81
2024/03/29 03:39:00;;;;;;;0.63;0.60;;;;;;;;;;6075318;23;20686;-82
2024/03/29 03:41:33;;;;;;;1.17;0.60;;;;;;;;;;6098983;23;20210;-82
2024/03/29 03:43:59;;;;;;;0.80;0.60;;;;;;;;;;6075118;23;20183;-81
2024/03/29 03:46:28;;;;;;;0.60;0.50;;;;;;;;;;6099070;23;20227;-81
2024/03/29 03:48:54;;;;;;;2.00;0.60;;;;;;;;;;6050974;23;20172;-81
2024/03/29 03:51:20;;;;;;;0.50;0.50;;;;;;;;;;6075227;23;20168;-80
2024/03/29 03:53:47;;;;;;;1.53;0.60;;;;;;;;;;6074585;23;20172;-82
2024/03/29 03:56:13;;;;;;;0.70;0.50;;;;;;;;;;6051418;23;20206;-81
2024/03/29 03:58:44;;;;;;;0.90;0.60;;;;;;;;;;6051291;23;20654;-81
2024/03/29 04:01:10;;;;;;;1.33;0.80;;;;;;;;;;6051018;23;20311;-83
2024/03/29 04:03:36;;;;;;;1.73;0.70;;;;;;;;;;6050712;23;20164;-82
2024/03/29 04:06:03;;;;;;;0.63;0.50;;;;;;;;;;6050512;23;20250;-83
2024/03/29 04:08:29;;;;;;;0.50;0.50;;;;;;;;;;6050490;23;20179;-82
2024/03/29 04:10:55;;;;;;;0.80;0.60;;;;;;;;;;6050656;23;20168;-81
2024/03/29 04:13:22;;;;;;;1.13;0.60;;;;;;;;;;6050060;23;20234;-81
2024/03/29 04:15:48;;;;;;;0.80;0.63;;;;;;;;;;6098445;23;20243;-82
2024/03/29 04:18:14;;;;;;;1.53;0.80;;;;;;;;;;6074211;23;20669;-81
2024/03/29 04:20:40;;;;;;;0.53;0.50;;;;;;;;;;6098156;23;20172;-81
2024/03/29 04:23:08;;;;;;;0.70;0.50;;;;;;;;;;6074144;23;20167;-82
2024/03/29 04:25:35;;;;;;;0.40;0.40;;;;;;;;;;6075574;23;20250;-83
2024/03/29 04:28:01;;;;;;;0.93;0.80;;;;;;;;;;6077084;23;20223;-82
2024/03/29 04:30:27;;;;;;;0.70;0.70;;;;;;;;;;6101852;23;20174;-82
2024/03/29 04:32:57;;;;;;;1.80;0.67;;;;;;;;;;6078204;23;20175;-83
2024/03/29 04:35:23;;;;;;;0.70;0.70;;;;;;;;;;6072829;23;20215;-83
2024/03/29 04:37:56;;;;;;;1.03;0.67;;;;;;;;;;6096184;23;20180;-83
2024/03/29 04:40:24;;;;;;;1.10;0.70;;;;;;;;;;6071995;23;20156;-83
2024/03/29 04:42:52;;;;;;;0.80;0.70;;;;;;;;;;6072506;23;20207;-81
2024/03/29 04:45:19;;;;;;;1.00;0.70;;;;;;;;;;6072991;23;20172;-82
2024/03/29 04:47:46;;;;;;;1.57;0.67;;;;;;;;;;6048802;23;20247;-81
2024/03/29 04:50:15;;;;;;;1.50;0.90;;;;;;;;;;6096815;23;20174;-82
2024/03/29 04:52:41;;;;;;;0.80;0.60;;;;;;;;;;6072939;23;20172;-82
2024/03/29 04:55:11;;;;;;;0.57;0.50;;;;;;;;;;6072867;23;20176;-82
2024/03/29 04:57:38;;;;;;;1.00;0.80;;;;;;;;;;6072854;23;20187;-82
2024/03/29 05:00:05;;;;;;;0.70;0.70;;;;;;;;;;6072657;23;20211;-81
2024/03/29 05:02:37;;;;;;;0.63;0.60;;;;;;;;;;6073665;23;20165;-83
2024/03/29 05:05:07;;;;;;;0.83;0.70;;;;;;;;;;6072066;23;20168;-82
2024/03/29 05:07:36;;;;;;;0.67;0.67;;;;;;;;;;6073537;23;20176;-81
2024/03/29 05:10:06;;;;;;;2.50;0.87;;;;;;;;;;6096802;23;20168;-82
2024/03/29 05:12:32;;;;;;;0.77;0.73;;;;;;;;;;6073402;23;20165;-81
2024/03/29 05:14:58;;;;;;;1.17;0.77;;;;;;;;;;6096919;23;20199;-81
2024/03/29 05:17:27;;;;;;;0.60;0.57;;;;;;;;;;6073124;23;20190;-83
2024/03/29 05:19:54;;;;;;;1.47;0.80;;;;;;;;;;6073114;23;20171;-81
2024/03/29 05:22:20;;;;;;;0.80;0.70;;;;;;;;;;6048632;23;20172;-83
2024/03/29 05:24:46;;;;;;;1.90;0.70;;;;;;;;;;6096010;23;20172;-81
2024/03/29 05:27:13;;;;;;;1.00;0.77;;;;;;;;;;6072460;23;20180;-81
2024/03/29 05:29:48;;;;;;;1.10;0.80;;;;;;;;;;6072530;23;20216;-81
2024/03/29 05:32:14;;;;;;;1.13;0.73;;;;;;;;;;6072192;23;20195;-82
2024/03/29 05:34:41;;;;;;;0.73;0.70;;;;;;;;;;6095989;23;20208;-83
2024/03/29 05:37:08;;;;;;;1.83;0.90;;;;;;;;;;6071432;23;20196;-81
2024/03/29 05:39:37;;;;;;;0.70;0.60;;;;;;;;;;6071468;23;20213;-82
2024/03/29 05:42:03;;;;;;;2.40;1.10;;;;;;;;;;6094835;23;20172;-81
2024/03/29 05:44:30;;;;;;;2.73;1.17;;;;;;;;;;6094964;23;20620;-82
2024/03/29 05:46:56;;;;;;;2.80;1.20;;;;;;;;;;6071087;23;20182;-81
2024/03/29 05:49:24;;;;;;;2.87;0.80;;;;;;;;;;6094940;23;20182;-82
2024/03/29 05:51:51;;;;;;;0.90;0.60;;;;;;;;;;6094526;23;20165;-80
2024/03/29 05:54:18;;;;;;;1.33;0.60;;;;;;;;;;6094664;23;20168;-85
2024/03/29 05:56:44;;;;;;;0.60;0.57;;;;;;;;;;6095260;23;20634;-80
2024/03/29 05:59:12;;;;;;;0.90;0.70;;;;;;;;;;6094252;23;20172;-81
2024/03/29 06:01:39;;;;;;;0.50;0.50;;;;;;;;;;6071146;23;20215;-82
2024/03/29 06:04:13;;;;;;;0.73;0.50;;;;;;;;;;6047071;23;20630;-81
2024/03/29 06:06:39;;;;;;;1.17;0.80;;;;;;;;;;6094519;23;20623;-81
2024/03/29 06:09:05;;;;;;;1.27;0.80;;;;;;;;;;6094447;23;20628;-80
2024/03/29 06:11:32;;;;;;;1.27;0.70;;;;;;;;;;6070554;23;20191;-81
2024/03/29 06:19:10;;;;;;;1.00;0.80;;;;;;;;;;6094113;23;20219;-81
2024/03/29 06:21:40;;;;;;;1.50;0.90;;;;;;;;;;6094418;23;20247;-81
2024/03/29 06:24:06;;;;;;;1.20;0.80;;;;;;;;;;6092463;23;20169;-81
2024/03/29 06:26:33;;;;;;;1.10;0.80;;;;;;;;;;6094068;23;20187;-82
2024/03/29 06:29:00;;;;;;;0.80;0.77;;;;;;;;;;6070172;23;20195;-82
2024/03/29 06:31:28;;;;;;;1.10;0.70;;;;;;;;;;6094250;23;20175;-82
2024/03/29 06:33:55;;;;;;;1.37;0.80;;;;;;;;;;6072142;23;20171;-84
2024/03/29 06:36:21;;;;;;;0.70;0.70;;;;;;;;;;6075693;23;20162;-82
2024/03/29 06:38:47;;;;;;;1.37;1.07;;;;;;;;;;6075593;23;20184;-81
2024/03/29 06:41:17;;;;;;;1.13;0.70;;;;;;;;;;6050782;23;20636;-80
2024/03/29 06:43:44;;;;;;;0.87;0.70;;;;;;;;;;6074416;23;20191;-81
2024/03/29 06:46:11;;;;;;;4.07;1.00;;;;;;;;;;6098908;23;20334;-81
2024/03/29 06:48:37;;;;;;;2.10;0.80;;;;;;;;;;6098233;23;20200;-78
2024/03/29 06:51:04;;;;;;;1.37;1.00;;;;;;;;;;6097762;23;20168;-79
2024/03/29 06:53:30;;;;;;;0.80;0.80;;;;;;;;;;6097118;23;20247;-79
2024/03/29 06:55:57;;;;;;;1.23;1.00;;;;;;;;;;6097462;23;20303;-79
2024/03/29 06:58:23;;;;;;;1.53;0.80;;;;;;;;;;6097233;23;20193;-79
2024/03/29 07:00:52;;;;;;;1.13;0.77;;;;;;;;;;6098083;23;20294;-79
2024/03/29 07:03:18;;;;;;;1.37;1.00;;;;;;;;;;6097096;23;20682;-78
2024/03/29 07:05:45;;;;;;;2.00;0.80;;;;;;;;;;6096024;23;20199;-78
2024/03/29 07:08:12;;;;;;;2.60;1.00;;;;;;;;;;6097004;23;20170;-78
2024/03/29 07:10:37;;;;;;;1.10;0.83;;;;;;;;;;6097435;23;20191;-79
2024/03/29 07:13:03;;;;;;;1.47;0.93;;;;;;;;;;6097361;23;20733;-78
2024/03/29 07:15:32;;;;;;;2.47;1.03;;;;;;;;;;6119169;23;20176;-77
2024/03/29 07:17:58;;;;;;;1.30;0.90;;;;;;;;;;6095102;23;20196;-78
2024/03/29 07:20:25;;;;;;;1.50;0.73;;;;;;;;;;6094008;23;20300;-78
2024/03/29 07:22:55;;;;;;;0.60;0.60;;;;;;;;;;6094065;23;20246;-78
2024/03/29 07:25:24;;;;;;;1.17;0.70;;;;;;;;;;6073355;23;20157;-79
2024/03/29 07:27:50;;;;;;;1.40;1.30;;;;;;;;;;6097122;23;20615;-78
2024/03/29 07:30:18;;;;;;;1.10;0.80;;;;;;;;;;6097216;23;20176;-78
2024/03/29 07:32:44;;;;;;;1.30;1.07;;;;;;;;;;6096928;23;20174;-78
2024/03/29 07:35:10;;;;;;;0.80;0.70;;;;;;;;;;6091602;23;20827;-78
2024/03/29 07:37:36;;;;;;;1.87;0.93;;;;;;;;;;6092355;23;20287;-79
2024/03/29 07:40:03;;;;;;;3.07;0.83;;;;;;;;;;6092328;23;20172;-78
2024/03/29 07:42:29;;;;;;;1.60;0.80;;;;;;;;;;6092093;23;20189;-82
2024/03/29 07:44:57;;;;;;;2.13;0.90;;;;;;;;;;6093032;23;20174;-81
2024/03/29 07:47:25;;;;;;;1.43;0.70;;;;;;;;;;6092123;23;20409;-81
2024/03/29 07:49:54;;;;;;;1.23;0.70;;;;;;;;;;6045469;23;20300;-81
2024/03/29 07:52:21;;;;;;;2.27;0.70;;;;;;;;;;6069035;23;20172;-82
2024/03/29 07:54:48;;;;;;;2.37;0.60;;;;;;;;;;6069707;23;20618;-82
2024/03/29 07:57:15;;;;;;;2.77;0.70;;;;;;;;;;6069443;23;20274;-81
2024/03/29 07:59:42;;;;;;;1.80;0.60;;;;;;;;;;6069249;23;20183;-82
2024/03/29 08:02:07;;;;;;;2.30;0.90;;;;;;;;;;6069290;23;20167;-81
2024/03/29 08:04:34;;;;;;;2.60;0.70;;;;;;;;;;6045266;23;20669;-81
2024/03/29 08:07:00;;;;;;;1.30;0.63;;;;;;;;;;6069616;23;20176;-82
2024/03/29 08:09:26;;;;;;;1.17;0.50;;;;;;;;;;6068864;23;20169;-81
2024/03/29 08:11:52;;;;;;;1.27;0.70;;;;;;;;;;6093114;23;20182;-81
2024/03/29 08:14:18;;;;;;;1.13;0.67;;;;;;;;;;6092686;23;20511;-81
2024/03/29 08:16:44;;;;;;;0.50;0.40;;;;;;;;;;6092998;23;20206;-81
2024/03/29 08:19:12;;;;;;;1.83;0.43;;;;;;;;;;6068949;23;20198;-81
2024/03/29 08:21:38;;;;;;;1.17;0.80;;;;;;;;;;6093323;23;20167;-82
2024/03/29 08:24:12;;;;;;;1.20;0.60;;;;;;;;;;6066656;23;20179;-81
2024/03/29 08:26:39;;;;;;;0.70;0.63;;;;;;;;;;6068667;23;20163;-82
2024/03/29 08:29:06;;;;;;;1.10;0.70;;;;;;;;;;6067571;23;20622;-82
2024/03/29 08:31:33;;;;;;;2.87;0.90;;;;;;;;;;6092753;23;20167;-82
2024/03/29 08:34:01;;;;;;;1.77;0.77;;;;;;;;;;6070495;23;20176;-81
2024/03/29 08:36:27;;;;;;;2.57;0.60;;;;;;;;;;6049560;23;20164;-82
2024/03/29 08:38:55;;;;;;;1.67;0.70;;;;;;;;;;6070573;23;20209;-81
2024/03/29 08:41:23;;;;;;;1.03;0.50;;;;;;;;;;6096446;23;20190;-81
2024/03/29 08:43:52;;;;;;;2.07;0.60;;;;;;;;;;6049859;23;20245;-81
2024/03/29 08:46:22;;;;;;;2.23;0.83;;;;;;;;;;6097975;23;20184;-80
2024/03/29 08:48:48;;;;;;;1.57;0.57;;;;;;;;;;6073039;23;20175;-81
2024/03/29 08:51:17;;;;;;;1.63;0.70;;;;;;;;;;6097539;23;20164;-81
2024/03/29 08:53:43;;;;;;;2.07;0.80;;;;;;;;;;6049297;23;20199;-80
2024/03/29 08:56:09;;;;;;;2.07;0.93;;;;;;;;;;6049257;23;20682;-81
2024/03/29 08:58:35;;;;;;;2.67;0.80;;;;;;;;;;6073088;23;20184;-81
2024/03/29 09:01:04;;;;;;;2.37;0.90;;;;;;;;;;6073036;23;20660;-81
2024/03/29 09:03:31;;;;;;;2.60;0.80;;;;;;;;;;6097662;23;20168;-81
2024/03/29 09:05:57;;;;;;;3.23;0.70;;;;;;;;;;6049589;23;20199;-81
2024/03/29 09:08:23;;;;;;;2.10;0.70;;;;;;;;;;6072570;23;20175;-81
2024/03/29 09:10:50;;;;;;;2.10;0.90;;;;;;;;;;6049628;23;20214;-81
2024/03/29 09:13:20;;;;;;;2.43;1.00;;;;;;;;;;6050933;23;20179;-81
2024/03/29 09:15:49;;;;;;;3.53;0.97;;;;;;;;;;6050863;23;20172;-81
2024/03/29 09:18:26;;;;;;;2.73;0.73;;;;;;;;;;6074877;23;20192;-83
2024/03/29 09:20:56;;;;;;;3.67;0.80;;;;;;;;;;6051240;23;20171;-83
2024/03/29 09:23:30;;;;;;;1.53;0.80;;;;;;;;;;6076133;23;20191;-83
2024/03/29 09:25:56;;;;;;;3.33;0.77;;;;;;;;;;6073643;23;20175;-83
2024/03/29 09:28:22;;;;;;;2.07;0.80;;;;;;;;;;6047855;23;20611;-83
2024/03/29 09:30:48;;;;;;;2.97;1.10;;;;;;;;;;6072114;23;20267;-83
2024/03/29 09:33:14;;;;;;;2.23;0.90;;;;;;;;;;6098571;23;20698;-82
2024/03/29 09:35:40;;;;;;;2.13;0.90;;;;;;;;;;6066933;23;20199;-83
2024/03/29 09:38:05;;;;;;;2.60;0.80;;;;;;;;;;6069950;23;20208;-82
2024/03/29 09:40:32;;;;;;;2.07;0.70;;;;;;;;;;6069410;23;20172;-83
2024/03/29 09:43:02;;;;;;;2.73;0.80;;;;;;;;;;6093647;23;20188;-83
2024/03/29 09:45:32;;;;;;;3.23;1.03;;;;;;;;;;6118141;23;20239;-83
2024/03/29 09:48:01;;;;;;;2.43;0.80;;;;;;;;;;6094050;23;20613;-83
2024/03/29 09:50:31;;;;;;;1.97;0.93;;;;;;;;;;6046482;23;20280;-83
2024/03/29 09:53:02;;;;;;;2.03;0.73;;;;;;;;;;6094078;23;20160;-82
2024/03/29 09:55:32;;;;;;;2.00;0.90;;;;;;;;;;6069775;23;20918;-83
2024/03/29 09:58:10;;;;;;;;;;;;;;;;;;;;;
2024/03/29 10:00:36;;;;;;;1.60;0.93;;;;;;;;;;6093922;23;20164;-83
2024/03/29 10:03:05;;;;;;;2.73;1.00;;;;;;;;;;6045697;23;20235;-83
2024/03/29 10:05:31;;;;;;;5.07;1.20;;;;;;;;;;6093561;23;20168;-83
2024/03/29 10:07:59;;;;;;;2.63;1.20;;;;;;;;;;6093717;23;20165;-82
2024/03/29 10:10:25;;;;;;;2.43;1.13;;;;;;;;;;6092913;23;20172;-83
2024/03/29 10:12:50;;;;;;;4.30;1.33;;;;;;;;;;6093037;23;20171;-82
2024/03/29 10:15:20;;;;;;;3.37;0.90;;;;;;;;;;6092893;23;20189;-83
2024/03/29 10:17:46;;;;;;;1.90;1.00;;;;;;;;;;6093059;23;20276;-83
2024/03/29 10:20:12;;;;;;;1.83;0.93;;;;;;;;;;6092956;23;20694;-82
2024/03/29 10:22:43;;;;;;;3.23;0.93;;;;;;;;;;6069101;23;20172;-82
2024/03/29 10:25:10;;;;;;;2.23;0.70;;;;;;;;;;6045087;23;20227;-82
2024/03/29 10:27:37;;;;;;;2.53;1.00;;;;;;;;;;6067485;23;20200;-82
2024/03/29 10:30:08;;;;;;;2.97;0.70;;;;;;;;;;6091754;23;20158;-82
2024/03/29 10:32:41;;;;;;;3.37;1.23;;;;;;;;;;6093044;23;20172;-82
2024/03/29 10:35:08;;;;;;;2.07;0.80;;;;;;;;;;6117174;23;20208;-82
2024/03/29 10:37:40;;;;;;;2.57;0.93;;;;;;;;;;6093520;23;20202;-82
2024/03/29 10:40:09;;;;;;;2.60;0.90;;;;;;;;;;6092996;23;20170;-82
2024/03/29 10:42:36;;;;;;;2.10;0.80;;;;;;;;;;6069631;23;20658;-82
2024/03/29 10:45:04;;;;;;;1.00;0.70;;;;;;;;;;6092739;23;20178;-82
2024/03/29 10:47:30;;;;;;;1.60;0.90;;;;;;;;;;6115712;23;20263;-82
2024/03/29 10:49:56;;;;;;;2.03;0.97;;;;;;;;;;6067539;23;20196;-81
2024/03/29 10:52:22;;;;;;;1.60;0.60;;;;;;;;;;6092125;23;20174;-82
2024/03/29 10:54:49;;;;;;;2.57;0.80;;;;;;;;;;6067754;23;20208;-82
2024/03/29 10:57:25;;;;;;;3.57;0.90;;;;;;;;;;6092705;23;20181;-82
2024/03/29 11:00:11;;;;;;;2.47;0.90;;;;;;;;;;6090438;23;20171;-82
2024/03/29 11:02:37;;;;;;;3.73;0.80;;;;;;;;;;6091967;23;20170;-82
2024/03/29 11:05:06;;;;;;;1.40;0.80;;;;;;;;;;6068138;23;20172;-81
2024/03/29 11:07:34;;;;;;;1.90;0.85;;;;;;;;;;6045230;23;20247;-81
2024/03/29 11:10:04;;;;;;;2.50;0.80;;;;;;;;;;6066773;23;20620;-81
2024/03/29 11:13:09;;;;;;;3.25;0.98;;;;;;;;;;6091244;23;20208;-81
2024/03/29 11:15:59;;;;;;;2.38;1.08;;;;;;;;;;5985003;23;20173;-81
2024/03/29 11:18:29;;;;;;;2.33;0.90;;;;;;;;;;6040046;23;20252;-81
2024/03/29 11:20:57;;;;;;;1.27;0.65;;;;;;;;;;6015892;23;20179;-81
2024/03/29 11:23:24;;;;;;;2.90;0.80;;;;;;;;;;6039469;23;20640;-81
2024/03/29 11:25:53;;;;;;;3.20;1.00;;;;;;;;;;6015867;23;20194;-81
2024/03/29 11:28:23;;;;;;;2.05;1.00;;;;;;;;;;6063334;23;20175;-81
2024/03/29 11:30:53;;;;;;;2.65;1.10;;;;;;;;;;6064156;23;20181;-81
2024/03/29 11:33:32;;;;;;;1.95;1.10;;;;;;;;;;6039977;23;20166;-80
2024/03/29 11:36:09;;;;;;;6.35;1.40;;;;;;;;;;6039252;23;20208;-79
2024/03/29 11:38:37;;;;;;;4.45;1.17;;;;;;;;;;6016838;23;20235;-81
2024/03/29 11:41:07;;;;;;;1.70;0.90;;;;;;;;;;6063520;23;20516;-80
2024/03/29 11:43:37;;;;;;;2.03;1.00;;;;;;;;;;6063314;23;20189;-81
2024/03/29 11:46:07;;;;;;;3.25;1.02;;;;;;;;;;6063634;23;20165;-80
2024/03/29 11:48:33;;;;;;;1.30;0.90;;;;;;;;;;6086783;23;20244;-80
2024/03/29 11:51:00;;;;;;;2.63;1.05;;;;;;;;;;6086819;23;20166;-81
2024/03/29 11:53:30;;;;;;;2.03;0.88;;;;;;;;;;6062001;23;20193;-80
2024/03/29 11:56:04;;;;;;;2.00;0.70;;;;;;;;;;6062152;23;20264;-82
2024/03/29 11:58:31;;;;;;;1.88;0.73;;;;;;;;;;6039916;23;20243;-80
2024/03/29 12:00:58;;;;;;;2.17;0.77;;;;;;;;;;6064051;23;20181;-80
2024/03/29 12:03:25;;;;;;;1.52;0.80;;;;;;;;;;6063267;23;20181;-80
2024/03/29 12:05:54;;;;;;;1.45;0.70;;;;;;;;;;6039914;23;20679;-81
2024/03/29 12:08:20;;;;;;;2.55;0.80;;;;;;;;;;6040221;23;20177;-79
2024/03/29 12:10:53;;;;;;;1.95;0.60;;;;;;;;;;6040816;23;20216;-80
2024/03/29 12:13:27;;;;;;;1.52;0.70;;;;;;;;;;6062844;23;20240;-81
2024/03/29 12:15:54;;;;;;;1.77;0.75;;;;;;;;;;6063115;23;20168;-80
2024/03/29 12:18:21;;;;;;;1.52;0.70;;;;;;;;;;6039459;23;20654;-81
2024/03/29 12:20:50;;;;;;;2.10;0.80;;;;;;;;;;6061937;23;20179;-80
2024/03/29 12:23:17;;;;;;;2.20;0.90;;;;;;;;;;6063426;23;20161;-79
2024/03/29 12:25:48;;;;;;;1.85;0.90;;;;;;;;;;6039800;23;20169;-79
2024/03/29 12:28:15;;;;;;;2.17;0.88;;;;;;;;;;6039855;23;20169;-81
2024/03/29 12:30:43;;;;;;;1.23;0.90;;;;;;;;;;6039272;23;20177;-80
2024/03/29 12:33:15;;;;;;;1.35;0.70;;;;;;;;;;6039653;23;20179;-79
2024/03/29 12:35:41;;;;;;;3.17;0.77;;;;;;;;;;6063220;23;20199;-79
2024/03/29 12:38:07;;;;;;;2.08;1.00;;;;;;;;;;6063458;23;20193;-80
2024/03/29 12:40:40;;;;;;;1.70;0.68;;;;;;;;;;6063172;23;20691;-80
2024/03/29 12:43:10;;;;;;;2.70;0.90;;;;;;;;;;6063625;23;20221;-80
2024/03/29 12:45:41;;;;;;;2.80;0.80;;;;;;;;;;6063231;23;20176;-80
2024/03/29 12:48:12;;;;;;;1.17;0.80;;;;;;;;;;6065002;23;20173;-81
2024/03/29 12:50:40;;;;;;;0.90;0.65;;;;;;;;;;6040930;23;20165;-81
2024/03/29 12:53:07;;;;;;;2.25;0.88;;;;;;;;;;6065282;23;20632;-80
2024/03/29 12:55:36;;;;;;;2.20;0.73;;;;;;;;;;6064926;23;20249;-79
2024/03/29 12:58:04;;;;;;;2.33;0.60;;;;;;;;;;6041546;23;20299;-81
2024/03/29 13:00:30;;;;;;;2.22;0.70;;;;;;;;;;6064507;23;20816;-80
2024/03/29 13:02:58;;;;;;;1.63;0.77;;;;;;;;;;6089254;23;20252;-79
2024/03/29 13:05:29;;;;;;;1.60;0.70;;;;;;;;;;6064604;23;20182;-80
2024/03/29 13:07:56;;;;;;;1.17;0.80;;;;;;;;;;6065196;23;20183;-80
2024/03/29 13:10:22;;;;;;;0.60;0.50;;;;;;;;;;6064656;23;20324;-81
2024/03/29 13:12:51;;;;;;;1.52;0.63;;;;;;;;;;6040949;23;20169;-81
2024/03/29 13:15:23;;;;;;;2.92;0.73;;;;;;;;;;6040624;23;20248;-79
2024/03/29 13:17:50;;;;;;;1.00;0.60;;;;;;;;;;6064742;23;20190;-80
2024/03/29 13:20:18;;;;;;;0.90;0.50;;;;;;;;;;6064872;23;20220;-80
2024/03/29 13:22:48;;;;;;;1.27;0.43;;;;;;;;;;6064676;23;20173;-79
2024/03/29 13:25:18;;;;;;;1.00;0.40;;;;;;;;;;6064574;23;20244;-81
2024/03/29 13:27:47;;;;;;;1.45;0.32;;;;;;;;;;6064693;23;20252;-80
2024/03/29 13:30:14;;;;;;;2.50;0.45;;;;;;;;;;6064216;23;20204;-80
2024/03/29 13:32:42;;;;;;;0.88;0.32;;;;;;;;;;6064925;23;20183;-80
2024/03/29 13:35:09;;;;;;;2.45;0.50;;;;;;;;;;6064232;23;20242;-79
2024/03/29 13:37:38;;;;;;;1.50;0.40;;;;;;;;;;6064362;23;20191;-80
2024/03/29 13:40:06;;;;;;;1.90;0.50;;;;;;;;;;6064621;23;20266;-80
2024/03/29 13:42:33;;;;;;;0.95;0.50;;;;;;;;;;6064790;23;20178;-80
2024/03/29 13:44:59;;;;;;;0.90;0.55;;;;;;;;;;6064672;23;20619;-80
2024/03/29 13:47:28;;;;;;;0.77;0.45;;;;;;;;;;6064730;23;20200;-80
2024/03/29 13:49:56;;;;;;;1.83;0.60;;;;;;;;;;6040754;23;20174;-80
2024/03/29 13:52:22;;;;;;;2.05;0.50;;;;;;;;;;6064483;23;20168;-80
2024/03/29 13:54:50;;;;;;;0.98;0.50;;;;;;;;;;6064847;23;20188;-79
2024/03/29 13:57:16;;;;;;;1.40;0.50;;;;;;;;;;6064398;23;20217;-80
2024/03/29 13:59:44;;;;;;;1.80;0.50;;;;;;;;;;6040093;23;20166;-80
2024/03/29 14:02:17;;;;;;;2.35;0.55;;;;;;;;;;6064510;23;20622;-80
2024/03/29 14:04:46;;;;;;;0.80;0.43;;;;;;;;;;6064477;23;20176;-80
2024/03/29 14:07:14;;;;;;;1.17;0.47;;;;;;;;;;6040957;23;20170;-80
2024/03/29 14:09:40;;;;;;;1.08;0.60;;;;;;;;;;6064752;23;20676;-80
2024/03/29 14:12:09;;;;;;;2.38;0.82;;;;;;;;;;6064750;23;20193;-81
2024/03/29 14:14:35;;;;;;;1.30;0.93;;;;;;;;;;6040054;23;20262;-80
2024/03/29 14:17:06;;;;;;;1.58;1.00;;;;;;;;;;6064555;23;20166;-80
2024/03/29 14:19:38;;;;;;;1.15;0.70;;;;;;;;;;6063932;23;20216;-80
2024/03/29 14:22:07;;;;;;;2.63;0.68;;;;;;;;;;6064327;23;20172;-80
2024/03/29 14:24:36;;;;;;;1.30;0.47;;;;;;;;;;6040133;23;20153;-79
2024/03/29 14:27:03;;;;;;;1.80;0.68;;;;;;;;;;6086620;23;20166;-80
2024/03/29 14:29:29;;;;;;;1.38;0.60;;;;;;;;;;6059065;23;20177;-80
2024/03/29 14:31:56;;;;;;;0.63;0.50;;;;;;;;;;6063619;23;20167;-78
2024/03/29 14:34:24;;;;;;;1.63;0.70;;;;;;;;;;6040183;23;20223;-79
2024/03/29 14:36:51;;;;;;;1.00;0.40;;;;;;;;;;6064401;23;20197;-80
2024/03/29 14:39:21;;;;;;;0.80;0.47;;;;;;;;;;6016868;23;20189;-82
2024/03/29 14:41:51;;;;;;;1.42;0.70;;;;;;;;;;6064374;23;20165;-79
2024/03/29 14:44:17;;;;;;;0.73;0.50;;;;;;;;;;6064230;23;20184;-80
2024/03/29 14:46:44;;;;;;;2.38;0.50;;;;;;;;;;6040330;23;20169;-80
2024/03/29 14:49:17;;;;;;;2.17;0.52;;;;;;;;;;6064872;23;20233;-80
2024/03/29 14:51:43;;;;;;;1.50;0.50;;;;;;;;;;6016562;23;20205;-81
2024/03/29 14:54:13;;;;;;;5.07;0.60;;;;;;;;;;6064468;23;20177;-80